sensor_id;sensor_type;location;lat;lon;timestamp;pressure;altitude;pressure_sealevel;temperature;humidity
82171;BME280;71755;48.038;14.346;2023-08-08T00:01:45;97584.94;;;11.92;69.09
82171;BME280;71755;48.038;14.346;2023-08-08T00:04:11;97596.09;;;12.10;68.30
82171;BME280;71755;48.038;14.346;2023-08-08T00:06:37;97583.72;;;12.04;69.56
82171;BME280;71755;48.038;14.346;2023-08-08T00:09:03;97582.38;;;12.02;69.53
82171;BME280;71755;48.038;14.346;2023-08-08T00:11:30;97585.59;;;12.04;69.18
82171;BME280;71755;48.038;14.346;2023-08-08T00:13:57;97584.53;;;12.05;68.55
82171;BME280;71755;48.038;14.346;2023-08-08T00:16:23;97580.78;;;12.06;69.24
82171;BME280;71755;48.038;14.346;2023-08-08T00:18:49;97581.34;;;12.08;68.59
82171;BME280;71755;48.038;14.346;2023-08-08T00:21:16;97570.97;;;12.16;67.87
82171;BME280;71755;48.038;14.346;2023-08-08T00:23:42;97573.91;;;12.15;69.11
82171;BME280;71755;48.038;14.346;2023-08-08T00:26:08;97572.84;;;12.16;68.68
82171;BME280;71755;48.038;14.346;2023-08-08T00:28:34;97572.66;;;12.23;68.50
82171;BME280;71755;48.038;14.346;2023-08-08T00:31:01;97570.25;;;12.26;68.25
82171;BME280;71755;48.038;14.346;2023-08-08T00:33:27;97562.00;;;12.28;67.26
82171;BME280;71755;48.038;14.346;2023-08-08T00:35:53;97570.59;;;12.30;67.78
82171;BME280;71755;48.038;14.346;2023-08-08T00:38:19;97563.47;;;12.45;66.70
82171;BME280;71755;48.038;14.346;2023-08-08T00:40:45;97567.72;;;12.41;67.42
82171;BME280;71755;48.038;14.346;2023-08-08T00:43:11;97566.13;;;12.40;67.05
82171;BME280;71755;48.038;14.346;2023-08-08T00:45:38;97562.59;;;12.35;68.14
82171;BME280;71755;48.038;14.346;2023-08-08T00:48:05;97558.13;;;12.45;66.94
82171;BME280;71755;48.038;14.346;2023-08-08T00:50:32;97559.00;;;12.56;66.74
82171;BME280;71755;48.038;14.346;2023-08-08T00:52:58;97567.81;;;12.51;66.19
82171;BME280;71755;48.038;14.346;2023-08-08T00:55:24;97552.06;;;12.60;65.72
82171;BME280;71755;48.038;14.346;2023-08-08T00:57:50;97555.84;;;12.64;65.10
82171;BME280;71755;48.038;14.346;2023-08-08T01:00:17;97554.19;;;12.58;66.21
82171;BME280;71755;48.038;14.346;2023-08-08T01:02:42;97551.25;;;12.60;66.53
82171;BME280;71755;48.038;14.346;2023-08-08T01:05:09;97557.38;;;12.55;65.99
82171;BME280;71755;48.038;14.346;2023-08-08T01:07:52;97540.25;;;12.61;66.03
82171;BME280;71755;48.038;14.346;2023-08-08T01:10:29;97545.94;;;12.65;65.97
82171;BME280;71755;48.038;14.346;2023-08-08T01:13:00;97543.81;;;12.67;65.98
82171;BME280;71755;48.038;14.346;2023-08-08T01:15:29;97549.69;;;12.64;65.07
82171;BME280;71755;48.038;14.346;2023-08-08T01:18:05;97552.69;;;12.72;65.34
82171;BME280;71755;48.038;14.346;2023-08-08T01:20:35;97547.56;;;12.66;65.40
82171;BME280;71755;48.038;14.346;2023-08-08T01:23:10;97550.97;;;12.61;65.84
82171;BME280;71755;48.038;14.346;2023-08-08T01:25:38;97551.31;;;12.65;64.48
82171;BME280;71755;48.038;14.346;2023-08-08T01:28:07;97551.84;;;12.67;65.21
82171;BME280;71755;48.038;14.346;2023-08-08T01:30:33;97554.47;;;12.62;66.16
82171;BME280;71755;48.038;14.346;2023-08-08T01:32:59;97557.66;;;12.59;65.65
82171;BME280;71755;48.038;14.346;2023-08-08T01:35:29;97557.66;;;12.59;66.96
82171;BME280;71755;48.038;14.346;2023-08-08T01:38:08;97564.06;;;12.52;66.81
82171;BME280;71755;48.038;14.346;2023-08-08T01:40:38;97559.34;;;12.65;65.51
82171;BME280;71755;48.038;14.346;2023-08-08T01:43:07;97556.66;;;12.65;66.21
82171;BME280;71755;48.038;14.346;2023-08-08T01:45:35;97566.31;;;12.66;65.93
82171;BME280;71755;48.038;14.346;2023-08-08T01:48:07;97562.25;;;12.63;66.17
82171;BME280;71755;48.038;14.346;2023-08-08T01:50:33;97563.03;;;12.59;67.03
82171;BME280;71755;48.038;14.346;2023-08-08T01:52:59;97568.94;;;12.61;65.88
82171;BME280;71755;48.038;14.346;2023-08-08T01:55:26;97558.28;;;12.66;66.90
82171;BME280;71755;48.038;14.346;2023-08-08T01:57:52;97562.50;;;12.62;66.17
82171;BME280;71755;48.038;14.346;2023-08-08T02:00:18;97570.78;;;12.55;66.35
82171;BME280;71755;48.038;14.346;2023-08-08T02:02:45;97579.59;;;12.50;66.98
82171;BME280;71755;48.038;14.346;2023-08-08T02:05:11;97559.19;;;12.44;67.81
82171;BME280;71755;48.038;14.346;2023-08-08T02:07:37;97569.31;;;12.37;68.50
82171;BME280;71755;48.038;14.346;2023-08-08T02:10:03;97562.28;;;12.31;68.89
82171;BME280;71755;48.038;14.346;2023-08-08T02:12:29;97562.81;;;12.28;69.12
82171;BME280;71755;48.038;14.346;2023-08-08T02:14:57;97570.03;;;12.28;69.96
82171;BME280;71755;48.038;14.346;2023-08-08T02:17:24;97562.47;;;12.25;69.82
82171;BME280;71755;48.038;14.346;2023-08-08T02:19:51;97565.63;;;12.16;69.57
82171;BME280;71755;48.038;14.346;2023-08-08T02:22:17;97561.50;;;12.04;71.07
82171;BME280;71755;48.038;14.346;2023-08-08T02:24:43;97556.41;;;12.02;70.74
82171;BME280;71755;48.038;14.346;2023-08-08T02:27:11;97558.47;;;11.95;71.10
82171;BME280;71755;48.038;14.346;2023-08-08T02:29:37;97558.78;;;11.99;71.07
82171;BME280;71755;48.038;14.346;2023-08-08T02:32:03;97554.75;;;11.96;71.18
82171;BME280;71755;48.038;14.346;2023-08-08T02:34:29;97554.84;;;12.06;69.91
82171;BME280;71755;48.038;14.346;2023-08-08T02:36:55;97552.38;;;12.00;71.30
82171;BME280;71755;48.038;14.346;2023-08-08T02:39:21;97551.31;;;12.01;70.57
82171;BME280;71755;48.038;14.346;2023-08-08T02:41:47;97548.63;;;12.01;70.58
82171;BME280;71755;48.038;14.346;2023-08-08T02:44:13;97537.41;;;12.04;70.26
82171;BME280;71755;48.038;14.346;2023-08-08T02:46:38;97546.00;;;12.06;70.13
82171;BME280;71755;48.038;14.346;2023-08-08T02:49:05;97543.81;;;12.03;70.43
82171;BME280;71755;48.038;14.346;2023-08-08T02:51:31;97537.97;;;12.06;69.77
82171;BME280;71755;48.038;14.346;2023-08-08T02:53:57;97542.81;;;12.09;70.28
82171;BME280;71755;48.038;14.346;2023-08-08T02:56:23;97544.13;;;12.06;71.09
82171;BME280;71755;48.038;14.346;2023-08-08T02:58:48;97542.50;;;12.05;70.62
82171;BME280;71755;48.038;14.346;2023-08-08T03:01:15;97552.44;;;12.10;70.16
82171;BME280;71755;48.038;14.346;2023-08-08T03:03:42;97543.34;;;12.11;70.51
82171;BME280;71755;48.038;14.346;2023-08-08T03:06:08;97554.88;;;12.11;69.97
82171;BME280;71755;48.038;14.346;2023-08-08T03:08:34;97546.84;;;12.11;70.22
82171;BME280;71755;48.038;14.346;2023-08-08T03:11:01;97553.81;;;12.12;70.53
82171;BME280;71755;48.038;14.346;2023-08-08T03:13:28;97550.31;;;12.12;70.45
82171;BME280;71755;48.038;14.346;2023-08-08T03:15:55;97554.63;;;12.13;71.30
82171;BME280;71755;48.038;14.346;2023-08-08T03:18:22;97550.03;;;12.08;70.72
82171;BME280;71755;48.038;14.346;2023-08-08T03:20:50;97551.91;;;12.08;71.42
82171;BME280;71755;48.038;14.346;2023-08-08T03:23:16;97554.84;;;12.06;71.30
82171;BME280;71755;48.038;14.346;2023-08-08T03:25:42;97545.72;;;12.07;71.77
82171;BME280;71755;48.038;14.346;2023-08-08T03:28:10;97550.78;;;12.04;71.99
82171;BME280;71755;48.038;14.346;2023-08-08T03:30:39;97549.44;;;12.01;71.45
82171;BME280;71755;48.038;14.346;2023-08-08T03:33:05;97556.34;;;11.97;71.49
82171;BME280;71755;48.038;14.346;2023-08-08T03:35:31;97553.13;;;11.95;71.62
82171;BME280;71755;48.038;14.346;2023-08-08T03:37:57;97557.41;;;11.96;71.36
82171;BME280;71755;48.038;14.346;2023-08-08T03:40:23;97562.47;;;11.93;71.57
82171;BME280;71755;48.038;14.346;2023-08-08T03:42:49;97554.94;;;11.89;72.13
82171;BME280;71755;48.038;14.346;2023-08-08T03:45:14;97557.38;;;11.91;72.66
82171;BME280;71755;48.038;14.346;2023-08-08T03:47:40;97557.63;;;11.89;72.67
82171;BME280;71755;48.038;14.346;2023-08-08T03:50:07;97563.16;;;11.83;73.41
82171;BME280;71755;48.038;14.346;2023-08-08T03:52:34;97555.28;;;11.76;73.83
82171;BME280;71755;48.038;14.346;2023-08-08T03:55:03;97565.53;;;11.79;74.01
82171;BME280;71755;48.038;14.346;2023-08-08T03:57:30;97563.56;;;11.75;74.10
82171;BME280;71755;48.038;14.346;2023-08-08T03:59:56;97558.94;;;11.65;75.28
82171;BME280;71755;48.038;14.346;2023-08-08T04:02:24;97552.28;;;11.68;75.07
82171;BME280;71755;48.038;14.346;2023-08-08T04:04:51;97558.31;;;11.58;75.82
82171;BME280;71755;48.038;14.346;2023-08-08T04:07:17;97551.84;;;11.54;75.37
82171;BME280;71755;48.038;14.346;2023-08-08T04:09:43;97556.47;;;11.37;76.31
82171;BME280;71755;48.038;14.346;2023-08-08T04:12:09;97557.56;;;11.41;75.93
82171;BME280;71755;48.038;14.346;2023-08-08T04:14:35;97563.72;;;11.41;76.41
82171;BME280;71755;48.038;14.346;2023-08-08T04:17:01;97559.69;;;11.39;76.16
82171;BME280;71755;48.038;14.346;2023-08-08T04:19:28;97565.28;;;11.37;76.23
82171;BME280;71755;48.038;14.346;2023-08-08T04:21:54;97574.06;;;11.33;76.29
82171;BME280;71755;48.038;14.346;2023-08-08T04:24:20;97563.38;;;11.33;76.90
82171;BME280;71755;48.038;14.346;2023-08-08T04:26:46;97572.06;;;11.23;77.21
82171;BME280;71755;48.038;14.346;2023-08-08T04:29:12;97558.63;;;11.18;77.24
82171;BME280;71755;48.038;14.346;2023-08-08T04:31:38;97571.97;;;10.96;78.02
82171;BME280;71755;48.038;14.346;2023-08-08T04:34:04;97562.16;;;11.02;77.69
82171;BME280;71755;48.038;14.346;2023-08-08T04:36:29;97557.69;;;11.07;77.93
82171;BME280;71755;48.038;14.346;2023-08-08T04:38:56;97564.16;;;11.11;78.11
82171;BME280;71755;48.038;14.346;2023-08-08T04:41:22;97556.84;;;11.23;77.40
82171;BME280;71755;48.038;14.346;2023-08-08T04:43:49;97570.03;;;11.30;76.82
82171;BME280;71755;48.038;14.346;2023-08-08T04:46:15;97565.53;;;11.36;77.02
82171;BME280;71755;48.038;14.346;2023-08-08T04:48:41;97566.41;;;11.41;76.24
82171;BME280;71755;48.038;14.346;2023-08-08T04:51:08;97569.38;;;11.45;76.13
82171;BME280;71755;48.038;14.346;2023-08-08T04:53:34;97577.47;;;11.50;76.05
82171;BME280;71755;48.038;14.346;2023-08-08T04:56:01;97572.13;;;11.50;76.41
82171;BME280;71755;48.038;14.346;2023-08-08T04:58:27;97571.66;;;11.53;76.48
82171;BME280;71755;48.038;14.346;2023-08-08T05:00:53;97572.75;;;11.57;77.08
82171;BME280;71755;48.038;14.346;2023-08-08T05:03:21;97579.22;;;11.61;77.12
82171;BME280;71755;48.038;14.346;2023-08-08T05:05:47;97581.16;;;11.66;76.86
82171;BME280;71755;48.038;14.346;2023-08-08T05:08:13;97583.31;;;11.69;76.99
82171;BME280;71755;48.038;14.346;2023-08-08T05:10:40;97584.13;;;11.69;77.26
82171;BME280;71755;48.038;14.346;2023-08-08T05:13:06;97582.56;;;11.73;77.81
82171;BME280;71755;48.038;14.346;2023-08-08T05:15:32;97591.50;;;11.79;78.02
82171;BME280;71755;48.038;14.346;2023-08-08T05:17:58;97593.91;;;11.80;77.44
82171;BME280;71755;48.038;14.346;2023-08-08T05:20:25;97585.94;;;11.85;78.24
82171;BME280;71755;48.038;14.346;2023-08-08T05:22:51;97590.16;;;11.81;76.99
82171;BME280;71755;48.038;14.346;2023-08-08T05:25:17;97591.16;;;11.75;76.53
82171;BME280;71755;48.038;14.346;2023-08-08T05:27:43;97593.47;;;11.67;77.85
82171;BME280;71755;48.038;14.346;2023-08-08T05:30:10;97592.34;;;11.63;78.20
82171;BME280;71755;48.038;14.346;2023-08-08T05:32:36;97581.84;;;11.56;77.37
82171;BME280;71755;48.038;14.346;2023-08-08T05:35:02;97581.84;;;11.56;77.99
82171;BME280;71755;48.038;14.346;2023-08-08T05:37:30;97584.28;;;11.57;77.36
82171;BME280;71755;48.038;14.346;2023-08-08T05:39:57;97579.34;;;11.71;77.77
82171;BME280;71755;48.038;14.346;2023-08-08T05:42:22;97584.50;;;11.78;76.38
82171;BME280;71755;48.038;14.346;2023-08-08T05:44:48;97576.84;;;11.86;76.48
82171;BME280;71755;48.038;14.346;2023-08-08T05:47:14;97577.97;;;11.91;76.97
82171;BME280;71755;48.038;14.346;2023-08-08T05:49:40;97575.09;;;11.97;76.32
82171;BME280;71755;48.038;14.346;2023-08-08T05:52:09;97583.22;;;12.07;76.55
82171;BME280;71755;48.038;14.346;2023-08-08T05:54:35;97579.53;;;12.13;74.65
82171;BME280;71755;48.038;14.346;2023-08-08T05:57:02;97581.19;;;12.19;74.54
82171;BME280;71755;48.038;14.346;2023-08-08T05:59:28;97588.47;;;12.24;74.33
82171;BME280;71755;48.038;14.346;2023-08-08T06:01:54;97582.66;;;12.32;74.62
82171;BME280;71755;48.038;14.346;2023-08-08T06:04:20;97587.53;;;12.40;74.56
82171;BME280;71755;48.038;14.346;2023-08-08T06:06:46;97587.63;;;12.50;74.31
82171;BME280;71755;48.038;14.346;2023-08-08T06:09:15;97593.03;;;12.56;74.62
82171;BME280;71755;48.038;14.346;2023-08-08T06:11:43;97589.81;;;12.59;75.08
82171;BME280;71755;48.038;14.346;2023-08-08T06:14:09;97598.41;;;12.61;75.73
82171;BME280;71755;48.038;14.346;2023-08-08T06:16:35;97599.47;;;12.60;76.41
82171;BME280;71755;48.038;14.346;2023-08-08T06:19:01;97605.97;;;12.64;76.16
82171;BME280;71755;48.038;14.346;2023-08-08T06:21:26;97612.97;;;12.70;75.67
82171;BME280;71755;48.038;14.346;2023-08-08T06:23:52;97607.09;;;12.73;75.43
82171;BME280;71755;48.038;14.346;2023-08-08T06:26:21;97607.69;;;12.80;75.44
82171;BME280;71755;48.038;14.346;2023-08-08T06:28:47;97604.53;;;12.88;74.87
82171;BME280;71755;48.038;14.346;2023-08-08T06:31:14;97606.44;;;12.93;74.85
82171;BME280;71755;48.038;14.346;2023-08-08T06:33:40;97612.09;;;12.96;75.53
82171;BME280;71755;48.038;14.346;2023-08-08T06:36:07;97591.72;;;13.00;77.10
82171;BME280;71755;48.038;14.346;2023-08-08T06:38:33;97599.22;;;12.98;76.17
82171;BME280;71755;48.038;14.346;2023-08-08T06:41:00;97585.81;;;12.98;76.36
82171;BME280;71755;48.038;14.346;2023-08-08T06:43:26;97588.81;;;13.02;75.57
82171;BME280;71755;48.038;14.346;2023-08-08T06:45:53;97585.63;;;13.10;75.09
82171;BME280;71755;48.038;14.346;2023-08-08T06:48:20;97588.66;;;13.19;75.45
82171;BME280;71755;48.038;14.346;2023-08-08T06:50:46;97585.19;;;13.23;74.84
82171;BME280;71755;48.038;14.346;2023-08-08T06:53:12;97584.44;;;13.33;73.93
82171;BME280;71755;48.038;14.346;2023-08-08T06:55:38;97580.97;;;13.37;73.57
82171;BME280;71755;48.038;14.346;2023-08-08T06:58:04;97582.28;;;13.35;72.81
82171;BME280;71755;48.038;14.346;2023-08-08T07:00:30;97580.72;;;13.39;70.86
82171;BME280;71755;48.038;14.346;2023-08-08T07:02:56;97575.38;;;13.39;71.04
82171;BME280;71755;48.038;14.346;2023-08-08T07:05:21;97578.63;;;13.51;71.96
82171;BME280;71755;48.038;14.346;2023-08-08T07:07:52;97568.97;;;13.55;72.58
82171;BME280;71755;48.038;14.346;2023-08-08T07:10:19;97568.22;;;13.70;71.86
82171;BME280;71755;48.038;14.346;2023-08-08T07:12:45;97579.81;;;13.81;71.19
82171;BME280;71755;48.038;14.346;2023-08-08T07:15:12;97576.06;;;13.87;70.79
82171;BME280;71755;48.038;14.346;2023-08-08T07:17:38;97571.78;;;14.01;67.73
82171;BME280;71755;48.038;14.346;2023-08-08T07:20:04;97570.22;;;14.20;66.02
82171;BME280;71755;48.038;14.346;2023-08-08T07:22:32;97571.03;;;14.36;66.53
82171;BME280;71755;48.038;14.346;2023-08-08T07:24:59;97569.47;;;14.60;66.11
82171;BME280;71755;48.038;14.346;2023-08-08T07:27:27;97566.22;;;14.74;65.57
82171;BME280;71755;48.038;14.346;2023-08-08T07:29:53;97565.38;;;14.83;64.53
82171;BME280;71755;48.038;14.346;2023-08-08T07:32:19;97568.34;;;14.92;65.36
82171;BME280;71755;48.038;14.346;2023-08-08T07:34:45;97561.59;;;15.05;66.76
82171;BME280;71755;48.038;14.346;2023-08-08T07:37:11;97563.16;;;15.21;67.88
82171;BME280;71755;48.038;14.346;2023-08-08T07:39:37;97566.09;;;15.35;67.43
82171;BME280;71755;48.038;14.346;2023-08-08T07:42:03;97564.19;;;15.40;61.41
82171;BME280;71755;48.038;14.346;2023-08-08T07:44:29;97550.66;;;15.60;60.77
82171;BME280;71755;48.038;14.346;2023-08-08T07:46:57;97556.78;;;15.76;61.12
82171;BME280;71755;48.038;14.346;2023-08-08T07:49:23;97544.53;;;15.99;61.99
82171;BME280;71755;48.038;14.346;2023-08-08T07:51:48;97549.63;;;16.06;61.55
82171;BME280;71755;48.038;14.346;2023-08-08T07:54:14;97554.94;;;16.16;57.82
82171;BME280;71755;48.038;14.346;2023-08-08T07:56:40;97549.13;;;16.33;56.90
82171;BME280;71755;48.038;14.346;2023-08-08T07:59:08;97549.94;;;16.38;60.18
82171;BME280;71755;48.038;14.346;2023-08-08T08:01:35;97544.72;;;16.47;56.14
82171;BME280;71755;48.038;14.346;2023-08-08T08:04:00;97548.31;;;16.37;55.89
82171;BME280;71755;48.038;14.346;2023-08-08T08:06:30;97547.66;;;16.50;58.80
82171;BME280;71755;48.038;14.346;2023-08-08T08:08:57;97537.56;;;16.66;57.13
82171;BME280;71755;48.038;14.346;2023-08-08T08:11:23;97534.81;;;16.71;53.83
82171;BME280;71755;48.038;14.346;2023-08-08T08:13:50;97534.81;;;16.71;53.16
82171;BME280;71755;48.038;14.346;2023-08-08T08:16:16;97540.13;;;16.81;53.70
82171;BME280;71755;48.038;14.346;2023-08-08T08:18:42;97527.72;;;16.80;52.44
82171;BME280;71755;48.038;14.346;2023-08-08T08:21:08;97533.47;;;16.98;54.66
82171;BME280;71755;48.038;14.346;2023-08-08T08:23:34;97524.97;;;16.85;51.72
82171;BME280;71755;48.038;14.346;2023-08-08T08:26:00;97522.13;;;17.01;55.30
82171;BME280;71755;48.038;14.346;2023-08-08T08:28:26;97532.34;;;17.04;53.34
82171;BME280;71755;48.038;14.346;2023-08-08T08:30:53;97518.78;;;17.33;55.62
82171;BME280;71755;48.038;14.346;2023-08-08T08:33:19;97520.31;;;17.39;54.18
82171;BME280;71755;48.038;14.346;2023-08-08T08:35:45;97514.53;;;17.50;52.11
82171;BME280;71755;48.038;14.346;2023-08-08T08:38:11;97509.72;;;17.47;51.13
82171;BME280;71755;48.038;14.346;2023-08-08T08:40:38;97518.28;;;17.31;51.91
82171;BME280;71755;48.038;14.346;2023-08-08T08:43:07;97510.31;;;17.39;51.53
82171;BME280;71755;48.038;14.346;2023-08-08T08:45:37;97503.13;;;17.54;52.12
82171;BME280;71755;48.038;14.346;2023-08-08T08:48:09;97521.06;;;17.44;49.16
82171;BME280;71755;48.038;14.346;2023-08-08T08:50:38;97505.44;;;17.41;52.70
82171;BME280;71755;48.038;14.346;2023-08-08T08:53:05;97510.31;;;17.63;52.79
82171;BME280;71755;48.038;14.346;2023-08-08T08:55:32;97499.50;;;17.63;51.43
82171;BME280;71755;48.038;14.346;2023-08-08T08:57:58;97491.94;;;17.84;51.73
82171;BME280;71755;48.038;14.346;2023-08-08T09:00:23;97489.09;;;17.94;49.72
82171;BME280;71755;48.038;14.346;2023-08-08T09:02:52;97492.97;;;17.45;51.33
82171;BME280;71755;48.038;14.346;2023-08-08T09:05:20;97488.16;;;17.85;50.45
82171;BME280;71755;48.038;14.346;2023-08-08T09:07:48;97494.06;;;17.87;51.67
82171;BME280;71755;48.038;14.346;2023-08-08T09:10:18;97478.84;;;18.10;49.27
82171;BME280;71755;48.038;14.346;2023-08-08T09:12:45;97477.91;;;18.33;49.42
82171;BME280;71755;48.038;14.346;2023-08-08T09:15:11;97482.25;;;18.16;48.16
82171;BME280;71755;48.038;14.346;2023-08-08T09:17:44;97484.44;;;18.32;50.82
82171;BME280;71755;48.038;14.346;2023-08-08T09:20:13;97484.72;;;18.31;49.43
82171;BME280;71755;48.038;14.346;2023-08-08T09:22:39;97476.22;;;18.05;46.02
82171;BME280;71755;48.038;14.346;2023-08-08T09:25:06;97487.00;;;18.24;45.81
82171;BME280;71755;48.038;14.346;2023-08-08T09:27:34;97490.72;;;18.28;48.78
82171;BME280;71755;48.038;14.346;2023-08-08T09:30:00;97471.53;;;18.43;48.67
82171;BME280;71755;48.038;14.346;2023-08-08T09:32:33;97473.34;;;18.48;46.37
82171;BME280;71755;48.038;14.346;2023-08-08T09:34:59;97483.22;;;18.25;48.12
82171;BME280;71755;48.038;14.346;2023-08-08T09:37:27;97475.25;;;18.15;50.02
82171;BME280;71755;48.038;14.346;2023-08-08T09:40:01;97473.88;;;17.79;49.98
82171;BME280;71755;48.038;14.346;2023-08-08T09:42:29;97480.50;;;17.49;50.08
82171;BME280;71755;48.038;14.346;2023-08-08T09:44:59;97478.44;;;17.41;50.31
82171;BME280;71755;48.038;14.346;2023-08-08T09:47:25;97476.28;;;17.62;50.30
82171;BME280;71755;48.038;14.346;2023-08-08T09:50:01;97484.84;;;17.45;47.09
82171;BME280;71755;48.038;14.346;2023-08-08T09:52:28;97472.16;;;17.46;48.23
82171;BME280;71755;48.038;14.346;2023-08-08T09:54:55;97466.38;;;17.76;52.22
82171;BME280;71755;48.038;14.346;2023-08-08T09:57:25;97464.06;;;18.21;49.41
82171;BME280;71755;48.038;14.346;2023-08-08T09:59:51;97455.19;;;18.81;48.39
82171;BME280;71755;48.038;14.346;2023-08-08T10:02:18;97458.00;;;19.03;49.85
82171;BME280;71755;48.038;14.346;2023-08-08T10:04:46;97449.19;;;18.84;48.14
82171;BME280;71755;48.038;14.346;2023-08-08T10:07:12;97457.63;;;18.96;47.00
82171;BME280;71755;48.038;14.346;2023-08-08T10:09:38;97449.00;;;19.08;47.32
82171;BME280;71755;48.038;14.346;2023-08-08T10:12:05;97449.69;;;18.86;46.83
82171;BME280;71755;48.038;14.346;2023-08-08T10:14:34;97445.38;;;19.12;47.82
82171;BME280;71755;48.038;14.346;2023-08-08T10:17:03;97447.06;;;19.22;49.40
82171;BME280;71755;48.038;14.346;2023-08-08T10:19:30;97447.13;;;19.44;45.86
82171;BME280;71755;48.038;14.346;2023-08-08T10:21:59;97446.41;;;19.52;48.06
82171;BME280;71755;48.038;14.346;2023-08-08T10:24:26;97433.09;;;19.42;44.33
82171;BME280;71755;48.038;14.346;2023-08-08T10:26:59;97444.88;;;19.10;44.84
82171;BME280;71755;48.038;14.346;2023-08-08T10:29:29;97435.50;;;19.30;46.13
82171;BME280;71755;48.038;14.346;2023-08-08T10:32:05;97438.50;;;19.56;43.39
82171;BME280;71755;48.038;14.346;2023-08-08T10:34:40;97442.75;;;19.34;47.40
82171;BME280;71755;48.038;14.346;2023-08-08T10:37:11;97436.28;;;19.58;43.96
82171;BME280;71755;48.038;14.346;2023-08-08T10:39:54;97422.75;;;19.30;43.49
82171;BME280;71755;48.038;14.346;2023-08-08T10:42:24;97428.19;;;19.80;48.48
82171;BME280;71755;48.038;14.346;2023-08-08T10:44:55;97434.06;;;19.74;47.25
82171;BME280;71755;48.038;14.346;2023-08-08T10:47:42;97416.34;;;19.54;43.14
82171;BME280;71755;48.038;14.346;2023-08-08T10:50:13;97418.47;;;19.79;42.57
82171;BME280;71755;48.038;14.346;2023-08-08T10:55:38;97411.13;;;19.80;40.42
82171;BME280;71755;48.038;14.346;2023-08-08T10:58:09;97414.28;;;19.73;43.29
82171;BME280;71755;48.038;14.346;2023-08-08T11:00:35;97400.22;;;19.71;41.66
82171;BME280;71755;48.038;14.346;2023-08-08T11:03:03;97397.50;;;20.16;42.70
82171;BME280;71755;48.038;14.346;2023-08-08T11:05:33;97404.28;;;20.27;45.83
82171;BME280;71755;48.038;14.346;2023-08-08T11:08:02;97404.88;;;20.24;44.31
82171;BME280;71755;48.038;14.346;2023-08-08T11:10:34;97395.16;;;20.45;42.03
82171;BME280;71755;48.038;14.346;2023-08-08T11:13:02;97387.50;;;20.47;41.67
82171;BME280;71755;48.038;14.346;2023-08-08T11:15:35;97395.69;;;20.34;38.70
82171;BME280;71755;48.038;14.346;2023-08-08T11:18:03;97379.34;;;20.87;42.66
82171;BME280;71755;48.038;14.346;2023-08-08T11:20:35;97375.38;;;20.93;38.53
82171;BME280;71755;48.038;14.346;2023-08-08T11:23:02;97379.34;;;20.87;41.08
82171;BME280;71755;48.038;14.346;2023-08-08T11:25:36;97389.09;;;20.97;39.83
82171;BME280;71755;48.038;14.346;2023-08-08T11:28:03;97384.66;;;21.01;42.63
82171;BME280;71755;48.038;14.346;2023-08-08T11:30:35;97375.38;;;21.02;40.22
82171;BME280;71755;48.038;14.346;2023-08-08T11:33:03;97374.44;;;20.58;40.12
82171;BME280;71755;48.038;14.346;2023-08-08T11:35:29;97373.34;;;20.68;39.27
82171;BME280;71755;48.038;14.346;2023-08-08T11:37:57;97372.25;;;20.69;41.17
82171;BME280;71755;48.038;14.346;2023-08-08T11:40:28;97373.69;;;20.66;39.31
82171;BME280;71755;48.038;14.346;2023-08-08T11:42:56;97373.63;;;21.06;38.35
82171;BME280;71755;48.038;14.346;2023-08-08T11:45:25;97370.13;;;21.05;38.82
82171;BME280;71755;48.038;14.346;2023-08-08T11:47:54;97378.69;;;20.81;40.69
82171;BME280;71755;48.038;14.346;2023-08-08T11:50:22;97375.25;;;21.15;41.74
82171;BME280;71755;48.038;14.346;2023-08-08T11:52:51;97370.13;;;21.05;40.16
82171;BME280;71755;48.038;14.346;2023-08-08T11:55:19;97378.22;;;20.88;39.34
82171;BME280;71755;48.038;14.346;2023-08-08T11:57:49;97361.66;;;21.07;39.88
82171;BME280;71755;48.038;14.346;2023-08-08T12:00:16;97368.50;;;20.96;38.10
82171;BME280;71755;48.038;14.346;2023-08-08T12:02:44;97368.63;;;20.82;37.79
82171;BME280;71755;48.038;14.346;2023-08-08T12:05:14;97373.63;;;21.06;42.01
82171;BME280;71755;48.038;14.346;2023-08-08T12:07:48;97362.28;;;21.04;38.29
82171;BME280;71755;48.038;14.346;2023-08-08T12:10:21;97365.25;;;21.33;38.47
82171;BME280;71755;48.038;14.346;2023-08-08T12:12:54;97360.13;;;21.32;38.39
82171;BME280;71755;48.038;14.346;2023-08-08T12:15:21;97343.63;;;21.19;37.38
82171;BME280;71755;48.038;14.346;2023-08-08T12:17:47;97351.34;;;21.35;39.77
82171;BME280;71755;48.038;14.346;2023-08-08T12:20:15;97353.88;;;21.40;40.18
82171;BME280;71755;48.038;14.346;2023-08-08T12:22:41;97347.97;;;21.64;38.71
82171;BME280;71755;48.038;14.346;2023-08-08T12:25:08;97345.25;;;21.46;37.45
82171;BME280;71755;48.038;14.346;2023-08-08T12:27:34;97335.16;;;21.21;34.55
82171;BME280;71755;48.038;14.346;2023-08-08T12:30:00;97339.19;;;21.41;40.01
82171;BME280;71755;48.038;14.346;2023-08-08T12:32:27;97334.84;;;21.48;39.62
82171;BME280;71755;48.038;14.346;2023-08-08T12:34:55;97344.78;;;21.44;39.54
82171;BME280;71755;48.038;14.346;2023-08-08T12:37:22;97330.81;;;21.03;36.79
82171;BME280;71755;48.038;14.346;2023-08-08T12:39:49;97330.97;;;21.06;39.84
82171;BME280;71755;48.038;14.346;2023-08-08T12:42:16;97324.63;;;21.28;36.39
82171;BME280;71755;48.038;14.346;2023-08-08T12:44:43;97322.84;;;21.75;37.63
82171;BME280;71755;48.038;14.346;2023-08-08T12:47:10;97318.41;;;21.62;36.38
82171;BME280;71755;48.038;14.346;2023-08-08T12:49:37;97308.13;;;21.76;38.10
82171;BME280;71755;48.038;14.346;2023-08-08T12:52:03;97317.91;;;21.51;34.76
82171;BME280;71755;48.038;14.346;2023-08-08T12:54:29;97315.38;;;21.29;39.28